sensor_id;sensor_type;location;lat;lon;timestamp;pressure;altitude;pressure_sealevel;temperature;humidity
48041;BME280;33815;48.386;11.738;2023-07-29T00:01:03;96211.94;;;15.79;100.00
48041;BME280;33815;48.386;11.738;2023-07-29T00:03:29;96223.19;;;15.73;100.00
48041;BME280;33815;48.386;11.738;2023-07-29T00:05:55;96229.44;;;15.72;100.00
48041;BME280;33815;48.386;11.738;2023-07-29T00:08:21;96218.47;;;15.62;100.00
48041;BME280;33815;48.386;11.738;2023-07-29T00:10:46;96225.56;;;15.68;100.00
48041;BME280;33815;48.386;11.738;2023-07-29T00:13:11;96225.09;;;15.57;100.00
48041;BME280;33815;48.386;11.738;2023-07-29T00:15:36;96218.00;;;15.58;100.00
48041;BME280;33815;48.386;11.738;2023-07-29T00:18:02;96223.22;;;15.51;100.00
48041;BME280;33815;48.386;11.738;2023-07-29T00:20:27;96223.84;;;15.53;100.00
48041;BME280;33815;48.386;11.738;2023-07-29T00:22:52;96225.66;;;15.53;100.00
48041;BME280;33815;48.386;11.738;2023-07-29T00:25:20;96226.22;;;15.48;100.00
48041;BME280;33815;48.386;11.738;2023-07-29T00:27:45;96206.50;;;15.31;100.00
48041;BME280;33815;48.386;11.738;2023-07-29T00:30:10;96226.94;;;15.35;100.00
48041;BME280;33815;48.386;11.738;2023-07-29T00:32:36;96218.38;;;15.27;100.00
48041;BME280;33815;48.386;11.738;2023-07-29T00:35:02;96230.50;;;15.28;100.00
48041;BME280;33815;48.386;11.738;2023-07-29T00:37:28;96218.75;;;15.23;100.00
48041;BME280;33815;48.386;11.738;2023-07-29T00:39:53;96219.50;;;15.17;100.00
48041;BME280;33815;48.386;11.738;2023-07-29T00:42:18;96233.88;;;15.21;100.00
48041;BME280;33815;48.386;11.738;2023-07-29T00:44:43;96220.50;;;15.16;100.00
48041;BME280;33815;48.386;11.738;2023-07-29T00:47:09;96228.81;;;15.20;100.00
48041;BME280;33815;48.386;11.738;2023-07-29T00:49:36;96227.56;;;15.16;100.00
48041;BME280;33815;48.386;11.738;2023-07-29T00:52:01;96226.50;;;15.10;100.00
48041;BME280;33815;48.386;11.738;2023-07-29T00:54:27;96232.84;;;15.01;100.00
48041;BME280;33815;48.386;11.738;2023-07-29T00:56:52;96216.34;;;14.85;100.00
48041;BME280;33815;48.386;11.738;2023-07-29T00:59:17;96221.97;;;14.82;100.00
48041;BME280;33815;48.386;11.738;2023-07-29T01:01:43;96210.00;;;14.73;100.00
48041;BME280;33815;48.386;11.738;2023-07-29T01:04:08;96219.41;;;14.67;100.00
48041;BME280;33815;48.386;11.738;2023-07-29T01:09:27;96208.72;;;14.54;100.00
48041;BME280;33815;48.386;11.738;2023-07-29T01:12:10;96203.66;;;14.52;100.00
48041;BME280;33815;48.386;11.738;2023-07-29T01:17:23;96201.25;;;14.36;100.00
48041;BME280;33815;48.386;11.738;2023-07-29T01:20:07;96198.91;;;14.26;100.00
48041;BME280;33815;48.386;11.738;2023-07-29T01:22:34;96203.72;;;14.22;100.00
48041;BME280;33815;48.386;11.738;2023-07-29T01:25:00;96214.81;;;14.25;100.00
48041;BME280;33815;48.386;11.738;2023-07-29T01:27:26;96199.94;;;14.10;100.00
48041;BME280;33815;48.386;11.738;2023-07-29T01:29:52;96203.81;;;14.14;100.00
48041;BME280;33815;48.386;11.738;2023-07-29T01:32:27;96195.75;;;14.01;100.00
48041;BME280;33815;48.386;11.738;2023-07-29T01:37:33;96216.09;;;13.99;100.00
48041;BME280;33815;48.386;11.738;2023-07-29T01:40:00;96205.34;;;13.94;100.00
48041;BME280;33815;48.386;11.738;2023-07-29T01:42:26;96200.28;;;13.77;100.00
48041;BME280;33815;48.386;11.738;2023-07-29T01:44:52;96197.41;;;13.72;100.00
48041;BME280;33815;48.386;11.738;2023-07-29T01:47:17;96205.06;;;13.74;100.00
48041;BME280;33815;48.386;11.738;2023-07-29T01:49:42;96207.69;;;13.74;100.00
48041;BME280;33815;48.386;11.738;2023-07-29T01:52:07;96206.84;;;13.73;100.00
48041;BME280;33815;48.386;11.738;2023-07-29T01:54:33;96200.47;;;13.61;100.00
48041;BME280;33815;48.386;11.738;2023-07-29T01:56:58;96205.88;;;13.59;100.00
48041;BME280;33815;48.386;11.738;2023-07-29T01:59:23;96211.19;;;13.66;100.00
48041;BME280;33815;48.386;11.738;2023-07-29T02:01:49;96205.50;;;13.62;100.00
48041;BME280;33815;48.386;11.738;2023-07-29T02:04:14;96199.81;;;13.59;100.00
48041;BME280;33815;48.386;11.738;2023-07-29T02:06:39;96201.50;;;13.51;100.00
48041;BME280;33815;48.386;11.738;2023-07-29T02:09:04;96199.19;;;13.57;100.00
48041;BME280;33815;48.386;11.738;2023-07-29T02:11:30;96196.28;;;13.51;100.00
48041;BME280;33815;48.386;11.738;2023-07-29T02:13:55;96188.06;;;13.40;100.00
48041;BME280;33815;48.386;11.738;2023-07-29T02:16:21;96179.88;;;13.34;100.00
48041;BME280;33815;48.386;11.738;2023-07-29T02:18:47;96192.81;;;13.36;100.00
48041;BME280;33815;48.386;11.738;2023-07-29T02:21:13;96188.09;;;13.31;100.00
48041;BME280;33815;48.386;11.738;2023-07-29T02:23:38;96182.44;;;13.19;100.00
48041;BME280;33815;48.386;11.738;2023-07-29T02:26:04;96187.84;;;13.18;100.00
48041;BME280;33815;48.386;11.738;2023-07-29T02:28:29;96187.25;;;13.16;100.00
48041;BME280;33815;48.386;11.738;2023-07-29T02:33:40;96188.03;;;13.16;100.00
48041;BME280;33815;48.386;11.738;2023-07-29T02:36:06;96191.00;;;13.13;100.00
48041;BME280;33815;48.386;11.738;2023-07-29T02:38:31;96192.16;;;13.11;100.00
48041;BME280;33815;48.386;11.738;2023-07-29T02:40:56;96177.50;;;13.01;100.00
48041;BME280;33815;48.386;11.738;2023-07-29T02:43:21;96185.47;;;13.08;100.00
48041;BME280;33815;48.386;11.738;2023-07-29T02:45:47;96195.59;;;13.11;100.00
48041;BME280;33815;48.386;11.738;2023-07-29T02:48:12;96190.34;;;13.11;100.00
48041;BME280;33815;48.386;11.738;2023-07-29T02:50:37;96185.97;;;13.12;100.00
48041;BME280;33815;48.386;11.738;2023-07-29T02:53:02;96191.19;;;13.12;100.00
48041;BME280;33815;48.386;11.738;2023-07-29T02:55:28;96181.22;;;13.07;100.00
48041;BME280;33815;48.386;11.738;2023-07-29T02:57:53;96189.19;;;13.14;100.00
48041;BME280;33815;48.386;11.738;2023-07-29T03:00:18;96172.81;;;12.97;100.00
48041;BME280;33815;48.386;11.738;2023-07-29T03:02:44;96197.59;;;13.09;100.00
48041;BME280;33815;48.386;11.738;2023-07-29T03:05:09;96185.28;;;12.95;100.00
48041;BME280;33815;48.386;11.738;2023-07-29T03:07:34;96209.75;;;13.02;100.00
48041;BME280;33815;48.386;11.738;2023-07-29T03:09:59;96203.06;;;12.99;100.00
48041;BME280;33815;48.386;11.738;2023-07-29T03:12:25;96205.19;;;12.96;100.00
48041;BME280;33815;48.386;11.738;2023-07-29T03:14:50;96182.06;;;12.84;100.00
48041;BME280;33815;48.386;11.738;2023-07-29T03:17:15;96190.69;;;12.93;100.00
48041;BME280;33815;48.386;11.738;2023-07-29T03:19:40;96178.09;;;12.89;100.00
48041;BME280;33815;48.386;11.738;2023-07-29T03:22:06;96173.41;;;12.84;100.00
48041;BME280;33815;48.386;11.738;2023-07-29T03:24:32;96166.41;;;12.76;100.00
48041;BME280;33815;48.386;11.738;2023-07-29T03:26:57;96161.91;;;12.70;100.00
48041;BME280;33815;48.386;11.738;2023-07-29T03:29:23;96179.66;;;12.75;100.00
48041;BME280;33815;48.386;11.738;2023-07-29T03:31:48;96174.34;;;12.68;100.00
48041;BME280;33815;48.386;11.738;2023-07-29T03:34:13;96169.91;;;12.68;100.00
48041;BME280;33815;48.386;11.738;2023-07-29T03:36:39;96176.25;;;12.74;100.00
48041;BME280;33815;48.386;11.738;2023-07-29T03:39:04;96174.00;;;12.71;100.00
48041;BME280;33815;48.386;11.738;2023-07-29T03:41:29;96166.66;;;12.66;100.00
48041;BME280;33815;48.386;11.738;2023-07-29T03:43:55;96165.50;;;12.69;100.00
48041;BME280;33815;48.386;11.738;2023-07-29T03:46:20;96157.38;;;12.64;100.00
48041;BME280;33815;48.386;11.738;2023-07-29T03:48:47;96167.25;;;12.77;100.00
48041;BME280;33815;48.386;11.738;2023-07-29T03:51:12;96167.59;;;12.74;100.00
48041;BME280;33815;48.386;11.738;2023-07-29T03:53:37;96173.22;;;12.85;100.00
48041;BME280;33815;48.386;11.738;2023-07-29T03:56:03;96181.31;;;12.99;100.00
48041;BME280;33815;48.386;11.738;2023-07-29T03:58:28;96177.00;;;13.06;100.00
48041;BME280;33815;48.386;11.738;2023-07-29T04:00:53;96170.63;;;13.09;100.00
48041;BME280;33815;48.386;11.738;2023-07-29T04:03:18;96177.94;;;13.13;100.00
48041;BME280;33815;48.386;11.738;2023-07-29T04:05:44;96184.00;;;13.29;100.00
48041;BME280;33815;48.386;11.738;2023-07-29T04:08:09;96174.31;;;13.38;100.00
48041;BME280;33815;48.386;11.738;2023-07-29T04:10:35;96157.00;;;13.28;100.00
48041;BME280;33815;48.386;11.738;2023-07-29T04:13:00;96178.03;;;13.43;100.00
48041;BME280;33815;48.386;11.738;2023-07-29T04:15:25;96174.59;;;13.43;100.00
48041;BME280;33815;48.386;11.738;2023-07-29T04:17:51;96193.59;;;13.60;100.00
48041;BME280;33815;48.386;11.738;2023-07-29T04:20:16;96175.16;;;13.53;100.00
48041;BME280;33815;48.386;11.738;2023-07-29T04:22:41;96174.09;;;13.62;100.00
48041;BME280;33815;48.386;11.738;2023-07-29T04:25:07;96186.91;;;13.72;100.00
48041;BME280;33815;48.386;11.738;2023-07-29T04:27:32;96179.50;;;13.76;100.00
48041;BME280;33815;48.386;11.738;2023-07-29T04:29:57;96160.38;;;13.75;100.00
48041;BME280;33815;48.386;11.738;2023-07-29T04:32:23;96166.50;;;13.82;100.00
48041;BME280;33815;48.386;11.738;2023-07-29T04:34:48;96149.09;;;13.75;100.00
48041;BME280;33815;48.386;11.738;2023-07-29T04:37:13;96137.88;;;13.66;100.00
48041;BME280;33815;48.386;11.738;2023-07-29T04:39:39;96155.84;;;13.69;100.00
48041;BME280;33815;48.386;11.738;2023-07-29T04:42:04;96148.16;;;13.67;100.00
48041;BME280;33815;48.386;11.738;2023-07-29T04:44:29;96156.00;;;13.67;100.00
48041;BME280;33815;48.386;11.738;2023-07-29T04:46:55;96131.72;;;13.59;100.00
48041;BME280;33815;48.386;11.738;2023-07-29T04:49:20;96137.78;;;13.59;100.00
48041;BME280;33815;48.386;11.738;2023-07-29T04:51:45;96118.91;;;13.49;100.00
48041;BME280;33815;48.386;11.738;2023-07-29T04:54:10;96153.84;;;13.56;100.00
48041;BME280;33815;48.386;11.738;2023-07-29T04:56:36;96149.50;;;13.48;100.00
48041;BME280;33815;48.386;11.738;2023-07-29T04:59:01;96149.44;;;13.57;100.00
48041;BME280;33815;48.386;11.738;2023-07-29T05:01:26;96153.66;;;13.58;100.00
48041;BME280;33815;48.386;11.738;2023-07-29T05:03:52;96141.59;;;13.57;100.00
48041;BME280;33815;48.386;11.738;2023-07-29T05:06:17;96130.38;;;13.63;100.00
48041;BME280;33815;48.386;11.738;2023-07-29T05:08:42;96138.25;;;13.78;100.00
48041;BME280;33815;48.386;11.738;2023-07-29T05:11:07;96131.00;;;13.80;100.00
48041;BME280;33815;48.386;11.738;2023-07-29T05:13:33;96127.31;;;13.89;100.00
48041;BME280;33815;48.386;11.738;2023-07-29T05:15:58;96114.72;;;13.99;100.00
48041;BME280;33815;48.386;11.738;2023-07-29T05:18:23;96121.16;;;14.33;100.00
48041;BME280;33815;48.386;11.738;2023-07-29T05:20:48;96132.38;;;14.42;100.00
48041;BME280;33815;48.386;11.738;2023-07-29T05:23:14;96120.38;;;14.54;100.00
48041;BME280;33815;48.386;11.738;2023-07-29T05:25:39;96141.66;;;14.81;100.00
48041;BME280;33815;48.386;11.738;2023-07-29T05:28:04;96146.75;;;14.89;100.00
48041;BME280;33815;48.386;11.738;2023-07-29T05:30:30;96136.53;;;14.95;100.00
48041;BME280;33815;48.386;11.738;2023-07-29T05:32:57;96136.75;;;15.21;100.00
48041;BME280;33815;48.386;11.738;2023-07-29T05:35:23;96146.00;;;15.46;100.00
48041;BME280;33815;48.386;11.738;2023-07-29T05:37:49;96123.03;;;15.54;100.00
48041;BME280;33815;48.386;11.738;2023-07-29T05:40:14;96136.88;;;15.70;100.00
48041;BME280;33815;48.386;11.738;2023-07-29T05:42:39;96123.94;;;15.75;100.00
48041;BME280;33815;48.386;11.738;2023-07-29T05:45:05;96143.34;;;16.02;100.00
48041;BME280;33815;48.386;11.738;2023-07-29T05:47:31;96137.09;;;16.10;100.00
48041;BME280;33815;48.386;11.738;2023-07-29T05:49:56;96132.66;;;16.17;100.00
48041;BME280;33815;48.386;11.738;2023-07-29T05:52:21;96144.25;;;16.30;100.00
48041;BME280;33815;48.386;11.738;2023-07-29T05:54:47;96130.91;;;16.24;100.00
48041;BME280;33815;48.386;11.738;2023-07-29T05:57:12;96137.59;;;16.34;100.00
48041;BME280;33815;48.386;11.738;2023-07-29T05:59:38;96130.34;;;16.49;100.00
48041;BME280;33815;48.386;11.738;2023-07-29T06:02:04;96133.63;;;16.65;100.00
48041;BME280;33815;48.386;11.738;2023-07-29T06:04:29;96129.75;;;16.60;100.00
48041;BME280;33815;48.386;11.738;2023-07-29T06:06:54;96122.31;;;16.71;100.00
48041;BME280;33815;48.386;11.738;2023-07-29T06:09:21;96124.94;;;16.71;100.00
48041;BME280;33815;48.386;11.738;2023-07-29T06:11:46;96127.59;;;16.84;100.00
48041;BME280;33815;48.386;11.738;2023-07-29T06:14:12;96132.03;;;16.84;100.00
48041;BME280;33815;48.386;11.738;2023-07-29T06:16:37;96095.41;;;16.82;100.00
48041;BME280;33815;48.386;11.738;2023-07-29T06:19:02;96126.41;;;17.07;100.00
48041;BME280;33815;48.386;11.738;2023-07-29T06:21:27;96133.13;;;17.29;100.00
48041;BME280;33815;48.386;11.738;2023-07-29T06:23:53;96131.28;;;17.37;100.00
48041;BME280;33815;48.386;11.738;2023-07-29T06:26:18;96148.09;;;17.42;100.00
48041;BME280;33815;48.386;11.738;2023-07-29T06:28:43;96142.78;;;17.49;100.00
48041;BME280;33815;48.386;11.738;2023-07-29T06:31:08;96147.09;;;17.37;100.00
48041;BME280;33815;48.386;11.738;2023-07-29T06:33:34;96132.06;;;17.24;100.00
48041;BME280;33815;48.386;11.738;2023-07-29T06:35:59;96131.66;;;17.34;100.00
48041;BME280;33815;48.386;11.738;2023-07-29T06:38:24;96143.63;;;17.50;100.00
48041;BME280;33815;48.386;11.738;2023-07-29T06:40:50;96135.28;;;17.66;100.00
48041;BME280;33815;48.386;11.738;2023-07-29T06:43:16;96131.53;;;18.14;100.00
48041;BME280;33815;48.386;11.738;2023-07-29T06:45:41;96140.75;;;18.37;100.00
48041;BME280;33815;48.386;11.738;2023-07-29T06:48:07;96128.38;;;18.37;100.00
48041;BME280;33815;48.386;11.738;2023-07-29T06:50:32;96118.50;;;18.64;100.00
48041;BME280;33815;48.386;11.738;2023-07-29T06:52:57;96117.13;;;18.94;100.00
48041;BME280;33815;48.386;11.738;2023-07-29T06:55:22;96139.22;;;18.99;100.00
48041;BME280;33815;48.386;11.738;2023-07-29T06:57:48;96143.53;;;19.19;100.00
48041;BME280;33815;48.386;11.738;2023-07-29T07:00:13;96150.28;;;19.15;100.00
48041;BME280;33815;48.386;11.738;2023-07-29T07:02:38;96155.88;;;19.25;100.00
48041;BME280;33815;48.386;11.738;2023-07-29T07:05:04;96173.00;;;19.16;100.00
48041;BME280;33815;48.386;11.738;2023-07-29T07:07:30;96216.13;;;19.10;100.00
48041;BME280;33815;48.386;11.738;2023-07-29T07:09:56;96223.75;;;18.86;100.00
48041;BME280;33815;48.386;11.738;2023-07-29T07:12:21;96217.03;;;18.52;100.00
48041;BME280;33815;48.386;11.738;2023-07-29T07:14:47;96205.94;;;18.23;100.00
48041;BME280;33815;48.386;11.738;2023-07-29T07:17:12;96207.44;;;17.85;100.00
48041;BME280;33815;48.386;11.738;2023-07-29T07:19:37;96209.50;;;17.50;100.00
48041;BME280;33815;48.386;11.738;2023-07-29T07:22:03;96204.63;;;17.20;100.00
48041;BME280;33815;48.386;11.738;2023-07-29T07:24:29;96203.78;;;16.99;100.00
48041;BME280;33815;48.386;11.738;2023-07-29T07:26:54;96194.47;;;17.03;100.00
48041;BME280;33815;48.386;11.738;2023-07-29T07:29:19;96195.28;;;17.10;100.00
48041;BME280;33815;48.386;11.738;2023-07-29T07:31:50;96197.69;;;17.05;100.00
48041;BME280;33815;48.386;11.738;2023-07-29T07:34:16;96186.97;;;17.07;100.00
48041;BME280;33815;48.386;11.738;2023-07-29T07:36:41;96176.25;;;17.02;100.00
48041;BME280;33815;48.386;11.738;2023-07-29T07:39:06;96166.28;;;16.97;100.00
48041;BME280;33815;48.386;11.738;2023-07-29T07:41:32;96176.44;;;16.93;100.00
48041;BME280;33815;48.386;11.738;2023-07-29T07:43:57;96145.41;;;16.82;100.00
48041;BME280;33815;48.386;11.738;2023-07-29T07:46:22;96153.75;;;17.12;100.00
48041;BME280;33815;48.386;11.738;2023-07-29T07:48:48;96126.59;;;17.32;100.00
48041;BME280;33815;48.386;11.738;2023-07-29T07:51:13;96129.41;;;17.64;100.00
48041;BME280;33815;48.386;11.738;2023-07-29T07:53:39;96112.16;;;17.81;100.00
48041;BME280;33815;48.386;11.738;2023-07-29T07:56:05;96114.16;;;17.86;100.00
48041;BME280;33815;48.386;11.738;2023-07-29T07:58:30;96124.28;;;17.89;100.00
48041;BME280;33815;48.386;11.738;2023-07-29T08:01:03;96131.16;;;18.04;100.00
48041;BME280;33815;48.386;11.738;2023-07-29T08:03:29;96146.06;;;18.30;100.00
48041;BME280;33815;48.386;11.738;2023-07-29T08:05:54;96154.06;;;18.55;100.00
48041;BME280;33815;48.386;11.738;2023-07-29T08:08:19;96139.72;;;18.76;100.00
48041;BME280;33815;48.386;11.738;2023-07-29T08:10:44;96145.78;;;18.90;100.00
48041;BME280;33815;48.386;11.738;2023-07-29T08:13:10;96135.69;;;18.74;100.00
48041;BME280;33815;48.386;11.738;2023-07-29T08:15:35;96121.66;;;18.80;100.00
48041;BME280;33815;48.386;11.738;2023-07-29T08:18:00;96115.38;;;19.06;100.00
48041;BME280;33815;48.386;11.738;2023-07-29T08:20:25;96111.56;;;19.02;100.00
48041;BME280;33815;48.386;11.738;2023-07-29T08:22:51;96135.19;;;18.90;100.00
48041;BME280;33815;48.386;11.738;2023-07-29T08:25:16;96136.19;;;19.21;100.00
48041;BME280;33815;48.386;11.738;2023-07-29T08:27:41;96130.56;;;19.17;100.00
48041;BME280;33815;48.386;11.738;2023-07-29T08:30:07;96126.75;;;19.32;100.00
48041;BME280;33815;48.386;11.738;2023-07-29T08:32:32;96135.38;;;19.46;100.00
48041;BME280;33815;48.386;11.738;2023-07-29T08:34:58;96144.34;;;19.63;100.00
48041;BME280;33815;48.386;11.738;2023-07-29T08:37:23;96127.38;;;19.96;100.00
48041;BME280;33815;48.386;11.738;2023-07-29T08:39:48;96152.81;;;19.72;100.00
48041;BME280;33815;48.386;11.738;2023-07-29T08:42:17;96147.44;;;19.60;100.00
48041;BME280;33815;48.386;11.738;2023-07-29T08:44:45;96148.47;;;19.59;100.00
48041;BME280;33815;48.386;11.738;2023-07-29T08:47:11;96144.81;;;19.35;100.00
48041;BME280;33815;48.386;11.738;2023-07-29T08:49:38;96164.09;;;19.61;100.00
48041;BME280;33815;48.386;11.738;2023-07-29T08:52:05;96160.09;;;19.58;100.00
48041;BME280;33815;48.386;11.738;2023-07-29T08:54:31;96155.81;;;19.57;100.00
48041;BME280;33815;48.386;11.738;2023-07-29T08:56:57;96147.28;;;19.55;100.00
48041;BME280;33815;48.386;11.738;2023-07-29T08:59:23;96163.13;;;19.80;100.00
48041;BME280;33815;48.386;11.738;2023-07-29T09:01:49;96153.84;;;19.96;100.00
48041;BME280;33815;48.386;11.738;2023-07-29T09:04:14;96168.81;;;20.02;100.00
48041;BME280;33815;48.386;11.738;2023-07-29T09:06:43;96167.91;;;19.90;100.00
48041;BME280;33815;48.386;11.738;2023-07-29T09:09:09;96159.13;;;19.96;100.00
48041;BME280;33815;48.386;11.738;2023-07-29T09:11:35;96154.69;;;20.27;100.00
48041;BME280;33815;48.386;11.738;2023-07-29T09:14:00;96147.63;;;21.00;100.00
48041;BME280;33815;48.386;11.738;2023-07-29T09:16:26;96152.94;;;21.00;100.00
48041;BME280;33815;48.386;11.738;2023-07-29T09:18:52;96155.34;;;21.02;100.00
48041;BME280;33815;48.386;11.738;2023-07-29T09:21:22;96156.53;;;21.18;100.00
48041;BME280;33815;48.386;11.738;2023-07-29T09:23:50;96151.81;;;21.32;100.00
48041;BME280;33815;48.386;11.738;2023-07-29T09:26:22;96146.59;;;21.67;100.00
48041;BME280;33815;48.386;11.738;2023-07-29T09:28:52;96153.00;;;21.95;100.00
48041;BME280;33815;48.386;11.738;2023-07-29T09:31:22;96146.34;;;22.45;100.00
48041;BME280;33815;48.386;11.738;2023-07-29T09:33:48;96151.81;;;22.67;100.00
48041;BME280;33815;48.386;11.738;2023-07-29T09:36:14;96146.22;;;22.98;100.00
48041;BME280;33815;48.386;11.738;2023-07-29T09:38:39;96150.34;;;22.76;97.70
48041;BME280;33815;48.386;11.738;2023-07-29T09:41:05;96138.16;;;22.92;99.56
48041;BME280;33815;48.386;11.738;2023-07-29T09:43:34;96145.16;;;22.99;95.89
48041;BME280;33815;48.386;11.738;2023-07-29T09:46:01;96140.47;;;22.43;98.56
48041;BME280;33815;48.386;11.738;2023-07-29T09:48:27;96130.22;;;22.64;100.00
48041;BME280;33815;48.386;11.738;2023-07-29T09:50:54;96122.41;;;23.20;96.10
48041;BME280;33815;48.386;11.738;2023-07-29T09:53:20;96122.97;;;23.39;94.77
48041;BME280;33815;48.386;11.738;2023-07-29T09:55:47;96123.94;;;23.16;95.28
48041;BME280;33815;48.386;11.738;2023-07-29T09:58:19;96118.53;;;23.61;98.17
48041;BME280;33815;48.386;11.738;2023-07-29T10:00:51;96128.19;;;23.51;90.05
48041;BME280;33815;48.386;11.738;2023-07-29T10:03:17;96128.53;;;23.37;92.56
48041;BME280;33815;48.386;11.738;2023-07-29T10:05:44;96121.38;;;23.21;90.92
48041;BME280;33815;48.386;11.738;2023-07-29T10:08:10;96115.50;;;23.19;92.80
48041;BME280;33815;48.386;11.738;2023-07-29T10:10:35;96121.31;;;23.72;92.10
48041;BME280;33815;48.386;11.738;2023-07-29T10:13:01;96121.19;;;24.23;89.58
48041;BME280;33815;48.386;11.738;2023-07-29T10:15:28;96120.44;;;24.77;83.55
48041;BME280;33815;48.386;11.738;2023-07-29T10:17:54;96099.41;;;24.53;85.31
48041;BME280;33815;48.386;11.738;2023-07-29T10:20:20;96096.38;;;24.67;81.79
48041;BME280;33815;48.386;11.738;2023-07-29T10:22:47;96095.66;;;25.41;85.94
48041;BME280;33815;48.386;11.738;2023-07-29T10:25:16;96094.50;;;25.70;78.61
48041;BME280;33815;48.386;11.738;2023-07-29T10:27:47;96095.44;;;25.48;78.34
48041;BME280;33815;48.386;11.738;2023-07-29T10:30:13;96072.88;;;24.91;75.91
48041;BME280;33815;48.386;11.738;2023-07-29T10:32:42;96077.47;;;25.33;79.17
48041;BME280;33815;48.386;11.738;2023-07-29T10:35:12;96053.47;;;25.86;74.53
48041;BME280;33815;48.386;11.738;2023-07-29T10:37:38;96061.47;;;26.60;71.99
48041;BME280;33815;48.386;11.738;2023-07-29T10:40:08;96057.75;;;26.76;69.12
48041;BME280;33815;48.386;11.738;2023-07-29T10:42:34;96049.63;;;26.20;68.77
48041;BME280;33815;48.386;11.738;2023-07-29T10:45:00;96121.13;;;25.59;72.63
48041;BME280;33815;48.386;11.738;2023-07-29T10:47:27;96139.69;;;24.12;74.26
48041;BME280;33815;48.386;11.738;2023-07-29T10:49:56;96148.50;;;21.96;79.39
48041;BME280;33815;48.386;11.738;2023-07-29T10:55:01;96125.16;;;20.91;94.85
48041;BME280;33815;48.386;11.738;2023-07-29T10:57:32;96128.22;;;19.03;100.00
48041;BME280;33815;48.386;11.738;2023-07-29T10:59:58;96168.22;;;18.22;100.00
48041;BME280;33815;48.386;11.738;2023-07-29T11:02:36;96162.09;;;17.29;100.00
48041;BME280;33815;48.386;11.738;2023-07-29T11:05:17;96165.38;;;16.50;100.00
48041;BME280;33815;48.386;11.738;2023-07-29T11:07:44;96192.59;;;16.29;100.00
48041;BME280;33815;48.386;11.738;2023-07-29T11:10:11;96204.75;;;15.95;100.00
48041;BME280;33815;48.386;11.738;2023-07-29T11:12:47;96206.47;;;15.81;100.00
48041;BME280;33815;48.386;11.738;2023-07-29T11:15:17;96198.88;;;15.92;100.00
48041;BME280;33815;48.386;11.738;2023-07-29T11:17:47;96184.91;;;15.64;100.00
48041;BME280;33815;48.386;11.738;2023-07-29T11:20:14;96160.94;;;15.73;100.00
48041;BME280;33815;48.386;11.738;2023-07-29T11:22:39;96154.47;;;15.76;100.00
48041;BME280;33815;48.386;11.738;2023-07-29T11:25:07;96137.44;;;15.93;100.00
48041;BME280;33815;48.386;11.738;2023-07-29T11:27:33;96145.44;;;16.20;100.00
48041;BME280;33815;48.386;11.738;2023-07-29T11:30:03;96144.53;;;16.55;100.00
48041;BME280;33815;48.386;11.738;2023-07-29T11:32:34;96138.09;;;16.71;100.00
48041;BME280;33815;48.386;11.738;2023-07-29T11:35:17;96126.00;;;16.90;100.00
48041;BME280;33815;48.386;11.738;2023-07-29T11:37:45;96126.00;;;16.97;100.00
48041;BME280;33815;48.386;11.738;2023-07-29T11:40:14;96125.41;;;17.21;100.00
48041;BME280;33815;48.386;11.738;2023-07-29T11:42:40;96133.28;;;17.35;100.00
48041;BME280;33815;48.386;11.738;2023-07-29T11:45:06;96123.16;;;17.45;100.00
48041;BME280;33815;48.386;11.738;2023-07-29T11:47:32;96121.44;;;17.84;100.00
48041;BME280;33815;48.386;11.738;2023-07-29T11:50:01;96123.00;;;18.57;100.00
48041;BME280;33815;48.386;11.738;2023-07-29T11:52:27;96104.13;;;19.17;100.00
48041;BME280;33815;48.386;11.738;2023-07-29T11:54:54;96121.44;;;19.57;100.00
48041;BME280;33815;48.386;11.738;2023-07-29T11:57:20;96119.22;;;20.16;100.00
48041;BME280;33815;48.386;11.738;2023-07-29T11:59:46;96118.38;;;20.65;100.00
48041;BME280;33815;48.386;11.738;2023-07-29T12:02:17;96104.88;;;20.54;100.00
48041;BME280;33815;48.386;11.738;2023-07-29T12:04:43;96113.53;;;20.62;100.00
48041;BME280;33815;48.386;11.738;2023-07-29T12:07:09;96111.56;;;20.99;100.00
48041;BME280;33815;48.386;11.738;2023-07-29T12:09:35;96102.88;;;21.22;100.00
48041;BME280;33815;48.386;11.738;2023-07-29T12:12:03;96116.94;;;21.59;100.00
48041;BME280;33815;48.386;11.738;2023-07-29T12:14:29;96108.28;;;21.39;100.00
48041;BME280;33815;48.386;11.738;2023-07-29T12:16:54;96109.63;;;21.89;100.00
48041;BME280;33815;48.386;11.738;2023-07-29T12:19:20;96094.50;;;22.02;100.00
48041;BME280;33815;48.386;11.738;2023-07-29T12:21:47;96102.16;;;21.86;100.00
48041;BME280;33815;48.386;11.738;2023-07-29T12:24:12;96098.03;;;22.19;100.00
48041;BME280;33815;48.386;11.738;2023-07-29T12:26:39;96106.56;;;22.33;100.00
48041;BME280;33815;48.386;11.738;2023-07-29T12:29:15;96088.19;;;22.32;100.00
48041;BME280;33815;48.386;11.738;2023-07-29T12:31:41;96086.53;;;22.71;100.00
48041;BME280;33815;48.386;11.738;2023-07-29T12:34:07;96097.66;;;23.02;100.00
48041;BME280;33815;48.386;11.738;2023-07-29T12:39:15;96092.03;;;23.72;100.00
48041;BME280;33815;48.386;11.738;2023-07-29T12:41:40;96102.84;;;23.82;100.00
48041;BME280;33815;48.386;11.738;2023-07-29T12:44:06;96100.00;;;23.50;100.00
48041;BME280;33815;48.386;11.738;2023-07-29T12:46:31;96079.56;;;22.99;100.00
48041;BME280;33815;48.386;11.738;2023-07-29T12:48:56;96104.31;;;22.71;100.00
48041;BME280;33815;48.386;11.738;2023-07-29T12:51:21;96096.16;;;22.61;100.00